sensor_id;sensor_type;location;lat;lon;timestamp;temperature;humidity
7290;DHT22;63176;52.678;13.250;2023-03-01T00:01:33;-2.90;99.90
7290;DHT22;63176;52.678;13.250;2023-03-01T00:03:59;-2.90;99.90
7290;DHT22;63176;52.678;13.250;2023-03-01T00:06:25;-2.90;99.90
7290;DHT22;63176;52.678;13.250;2023-03-01T00:08:51;-2.90;99.90
7290;DHT22;63176;52.678;13.250;2023-03-01T00:11:23;-2.90;99.90
7290;DHT22;63176;52.678;13.250;2023-03-01T00:13:51;-2.90;99.90
7290;DHT22;63176;52.678;13.250;2023-03-01T00:16:29;-2.80;99.90
7290;DHT22;63176;52.678;13.250;2023-03-01T00:18:56;-2.90;99.90
7290;DHT22;63176;52.678;13.250;2023-03-01T00:21:22;-2.90;99.90
7290;DHT22;63176;52.678;13.250;2023-03-01T00:23:48;-2.90;99.90
7290;DHT22;63176;52.678;13.250;2023-03-01T00:26:15;-2.90;99.90
7290;DHT22;63176;52.678;13.250;2023-03-01T00:28:42;-3.00;99.90
7290;DHT22;63176;52.678;13.250;2023-03-01T00:31:10;-3.00;99.90
7290;DHT22;63176;52.678;13.250;2023-03-01T00:33:36;-3.00;99.90
7290;DHT22;63176;52.678;13.250;2023-03-01T00:36:02;-3.00;99.90
7290;DHT22;63176;52.678;13.250;2023-03-01T00:38:29;-3.10;99.90
7290;DHT22;63176;52.678;13.250;2023-03-01T00:40:54;-3.10;99.90
7290;DHT22;63176;52.678;13.250;2023-03-01T00:43:20;-3.10;99.90
7290;DHT22;63176;52.678;13.250;2023-03-01T00:45:46;-3.20;99.90
7290;DHT22;63176;52.678;13.250;2023-03-01T00:48:12;-3.20;99.90
7290;DHT22;63176;52.678;13.250;2023-03-01T00:50:37;-3.20;99.90
7290;DHT22;63176;52.678;13.250;2023-03-01T00:53:03;-3.20;99.90
7290;DHT22;63176;52.678;13.250;2023-03-01T00:55:30;-3.20;99.90
7290;DHT22;63176;52.678;13.250;2023-03-01T00:57:56;-3.10;99.90
7290;DHT22;63176;52.678;13.250;2023-03-01T01:00:21;-3.10;99.90
7290;DHT22;63176;52.678;13.250;2023-03-01T01:02:47;-3.10;99.90
7290;DHT22;63176;52.678;13.250;2023-03-01T01:05:14;-3.10;99.90
7290;DHT22;63176;52.678;13.250;2023-03-01T01:07:39;-3.20;99.90
7290;DHT22;63176;52.678;13.250;2023-03-01T01:10:05;-3.20;99.90
7290;DHT22;63176;52.678;13.250;2023-03-01T01:12:32;-3.20;99.90
7290;DHT22;63176;52.678;13.250;2023-03-01T01:14:58;-3.30;99.90
7290;DHT22;63176;52.678;13.250;2023-03-01T01:17:24;-3.30;99.90
7290;DHT22;63176;52.678;13.250;2023-03-01T01:19:49;-3.20;99.90
7290;DHT22;63176;52.678;13.250;2023-03-01T01:22:15;-3.10;99.90
7290;DHT22;63176;52.678;13.250;2023-03-01T01:24:41;-3.10;99.90
7290;DHT22;63176;52.678;13.250;2023-03-01T01:27:06;-3.20;99.90
7290;DHT22;63176;52.678;13.250;2023-03-01T01:29:32;-3.30;99.90
7290;DHT22;63176;52.678;13.250;2023-03-01T01:31:58;-3.30;99.90
7290;DHT22;63176;52.678;13.250;2023-03-01T01:34:24;-3.30;99.90
7290;DHT22;63176;52.678;13.250;2023-03-01T01:36:51;-3.30;99.90
7290;DHT22;63176;52.678;13.250;2023-03-01T01:39:21;-3.40;99.90
7290;DHT22;63176;52.678;13.250;2023-03-01T01:41:47;-3.50;99.90
7290;DHT22;63176;52.678;13.250;2023-03-01T01:46:50;-3.30;99.90
7290;DHT22;63176;52.678;13.250;2023-03-01T01:52:03;-3.40;99.90
7290;DHT22;63176;52.678;13.250;2023-03-01T01:54:42;-3.40;99.90
7290;DHT22;63176;52.678;13.250;2023-03-01T01:57:17;-3.50;99.90
7290;DHT22;63176;52.678;13.250;2023-03-01T01:59:47;-3.50;99.90
7290;DHT22;63176;52.678;13.250;2023-03-01T02:02:14;-3.50;99.90
7290;DHT22;63176;52.678;13.250;2023-03-01T02:04:40;-3.50;99.90
7290;DHT22;63176;52.678;13.250;2023-03-01T02:07:20;-3.50;99.90
7290;DHT22;63176;52.678;13.250;2023-03-01T02:09:51;-3.50;99.90
7290;DHT22;63176;52.678;13.250;2023-03-01T02:12:21;-3.60;99.90
7290;DHT22;63176;52.678;13.250;2023-03-01T02:14:48;-3.60;99.90
7290;DHT22;63176;52.678;13.250;2023-03-01T02:17:16;-3.60;99.90
7290;DHT22;63176;52.678;13.250;2023-03-01T02:22:27;-3.70;99.90
7290;DHT22;63176;52.678;13.250;2023-03-01T02:30:31;-3.70;99.90
7290;DHT22;63176;52.678;13.250;2023-03-01T02:32:59;-3.70;99.90
7290;DHT22;63176;52.678;13.250;2023-03-01T02:35:34;-3.70;99.90
7290;DHT22;63176;52.678;13.250;2023-03-01T02:38:01;-3.70;99.90
7290;DHT22;63176;52.678;13.250;2023-03-01T02:40:29;-3.80;99.90
7290;DHT22;63176;52.678;13.250;2023-03-01T02:42:57;-3.70;99.90
7290;DHT22;63176;52.678;13.250;2023-03-01T02:45:24;-3.70;99.90
7290;DHT22;63176;52.678;13.250;2023-03-01T02:47:54;-3.60;99.90
7290;DHT22;63176;52.678;13.250;2023-03-01T02:55:20;-3.70;99.90
7290;DHT22;63176;52.678;13.250;2023-03-01T02:57:48;-3.70;99.90
7290;DHT22;63176;52.678;13.250;2023-03-01T03:00:26;-3.70;99.90
7290;DHT22;63176;52.678;13.250;2023-03-01T03:02:54;-3.70;99.90
7290;DHT22;63176;52.678;13.250;2023-03-01T03:05:22;-3.80;99.90
7290;DHT22;63176;52.678;13.250;2023-03-01T03:07:49;-3.80;99.90
7290;DHT22;63176;52.678;13.250;2023-03-01T03:10:18;-3.80;99.90
7290;DHT22;63176;52.678;13.250;2023-03-01T03:12:55;-3.90;99.90
7290;DHT22;63176;52.678;13.250;2023-03-01T03:15:22;-4.00;99.90
7290;DHT22;63176;52.678;13.250;2023-03-01T03:17:49;-4.00;99.90
7290;DHT22;63176;52.678;13.250;2023-03-01T03:20:17;-4.00;99.90
7290;DHT22;63176;52.678;13.250;2023-03-01T03:22:46;-4.00;99.90
7290;DHT22;63176;52.678;13.250;2023-03-01T03:25:12;-3.90;99.90
7290;DHT22;63176;52.678;13.250;2023-03-01T03:27:38;-4.00;99.90
7290;DHT22;63176;52.678;13.250;2023-03-01T03:30:06;-3.90;99.90
7290;DHT22;63176;52.678;13.250;2023-03-01T03:32:35;-4.00;99.90
7290;DHT22;63176;52.678;13.250;2023-03-01T03:35:03;-4.00;99.90
7290;DHT22;63176;52.678;13.250;2023-03-01T03:37:38;-4.00;99.90
7290;DHT22;63176;52.678;13.250;2023-03-01T03:40:22;-4.00;99.90
7290;DHT22;63176;52.678;13.250;2023-03-01T03:42:48;-3.90;99.90
7290;DHT22;63176;52.678;13.250;2023-03-01T03:45:15;-3.90;99.90
7290;DHT22;63176;52.678;13.250;2023-03-01T03:47:41;-4.00;99.90
7290;DHT22;63176;52.678;13.250;2023-03-01T03:50:08;-3.90;99.90
7290;DHT22;63176;52.678;13.250;2023-03-01T03:52:34;-3.90;99.90
7290;DHT22;63176;52.678;13.250;2023-03-01T03:55:04;-4.00;99.90
7290;DHT22;63176;52.678;13.250;2023-03-01T03:57:41;-4.10;99.90
7290;DHT22;63176;52.678;13.250;2023-03-01T04:00:11;-4.00;99.90
7290;DHT22;63176;52.678;13.250;2023-03-01T04:02:41;-4.10;99.90
7290;DHT22;63176;52.678;13.250;2023-03-01T04:05:08;-4.20;99.90
7290;DHT22;63176;52.678;13.250;2023-03-01T04:07:37;-4.20;99.90
7290;DHT22;63176;52.678;13.250;2023-03-01T04:10:05;-4.30;99.90
7290;DHT22;63176;52.678;13.250;2023-03-01T04:12:33;-4.30;99.90
7290;DHT22;63176;52.678;13.250;2023-03-01T04:15:00;-4.20;99.90
7290;DHT22;63176;52.678;13.250;2023-03-01T04:17:26;-4.20;99.90
7290;DHT22;63176;52.678;13.250;2023-03-01T04:19:52;-4.10;99.90
7290;DHT22;63176;52.678;13.250;2023-03-01T04:22:18;-4.20;99.90
7290;DHT22;63176;52.678;13.250;2023-03-01T04:24:44;-4.20;99.90
7290;DHT22;63176;52.678;13.250;2023-03-01T04:27:11;-4.30;99.90
7290;DHT22;63176;52.678;13.250;2023-03-01T04:29:36;-4.10;99.90
7290;DHT22;63176;52.678;13.250;2023-03-01T04:32:02;-4.00;99.90
7290;DHT22;63176;52.678;13.250;2023-03-01T04:34:29;-4.10;99.90
7290;DHT22;63176;52.678;13.250;2023-03-01T04:36:55;-4.10;99.90
7290;DHT22;63176;52.678;13.250;2023-03-01T04:39:21;-4.20;99.90
7290;DHT22;63176;52.678;13.250;2023-03-01T04:41:47;-4.20;99.90
7290;DHT22;63176;52.678;13.250;2023-03-01T04:44:12;-4.20;99.90
7290;DHT22;63176;52.678;13.250;2023-03-01T04:46:38;-4.20;99.90
7290;DHT22;63176;52.678;13.250;2023-03-01T04:49:05;-4.30;99.90
7290;DHT22;63176;52.678;13.250;2023-03-01T04:51:31;-4.20;99.90
7290;DHT22;63176;52.678;13.250;2023-03-01T04:53:58;-4.20;99.90
7290;DHT22;63176;52.678;13.250;2023-03-01T04:56:24;-4.20;99.90
7290;DHT22;63176;52.678;13.250;2023-03-01T04:58:49;-4.30;99.90
7290;DHT22;63176;52.678;13.250;2023-03-01T05:01:19;-4.30;99.90
7290;DHT22;63176;52.678;13.250;2023-03-01T05:03:50;-4.30;99.90
7290;DHT22;63176;52.678;13.250;2023-03-01T05:06:17;-4.40;99.90
7290;DHT22;63176;52.678;13.250;2023-03-01T05:08:43;-4.40;99.90
7290;DHT22;63176;52.678;13.250;2023-03-01T05:11:10;-4.50;99.90
7290;DHT22;63176;52.678;13.250;2023-03-01T05:13:37;-4.50;99.90
7290;DHT22;63176;52.678;13.250;2023-03-01T05:16:04;-4.60;99.90
7290;DHT22;63176;52.678;13.250;2023-03-01T05:18:32;-4.60;99.90
7290;DHT22;63176;52.678;13.250;2023-03-01T05:21:06;-4.50;99.90
7290;DHT22;63176;52.678;13.250;2023-03-01T05:23:32;-4.50;99.90
7290;DHT22;63176;52.678;13.250;2023-03-01T05:25:59;-4.50;99.90
7290;DHT22;63176;52.678;13.250;2023-03-01T05:28:26;-4.50;99.90
7290;DHT22;63176;52.678;13.250;2023-03-01T05:30:52;-4.50;99.90
7290;DHT22;63176;52.678;13.250;2023-03-01T05:33:18;-4.60;99.90
7290;DHT22;63176;52.678;13.250;2023-03-01T05:35:45;-4.50;99.90
7290;DHT22;63176;52.678;13.250;2023-03-01T05:38:12;-4.50;99.90
7290;DHT22;63176;52.678;13.250;2023-03-01T05:40:39;-4.50;99.90
7290;DHT22;63176;52.678;13.250;2023-03-01T05:43:05;-4.40;99.90
7290;DHT22;63176;52.678;13.250;2023-03-01T05:45:32;-4.50;99.90
7290;DHT22;63176;52.678;13.250;2023-03-01T05:48:00;-4.60;99.90
7290;DHT22;63176;52.678;13.250;2023-03-01T05:50:28;-4.50;99.90
7290;DHT22;63176;52.678;13.250;2023-03-01T05:53:01;-4.60;99.90
7290;DHT22;63176;52.678;13.250;2023-03-01T05:55:29;-4.60;99.90
7290;DHT22;63176;52.678;13.250;2023-03-01T05:57:57;-4.60;99.90
7290;DHT22;63176;52.678;13.250;2023-03-01T06:00:23;-4.50;99.90
7290;DHT22;63176;52.678;13.250;2023-03-01T06:02:49;-4.40;99.90
7290;DHT22;63176;52.678;13.250;2023-03-01T06:05:15;-4.40;99.90
7290;DHT22;63176;52.678;13.250;2023-03-01T06:07:41;-4.50;99.90
7290;DHT22;63176;52.678;13.250;2023-03-01T06:10:08;-4.50;99.90
7290;DHT22;63176;52.678;13.250;2023-03-01T06:12:35;-4.50;99.90
7290;DHT22;63176;52.678;13.250;2023-03-01T06:15:02;-4.50;99.90
7290;DHT22;63176;52.678;13.250;2023-03-01T06:17:30;-4.50;99.90
7290;DHT22;63176;52.678;13.250;2023-03-01T06:19:56;-4.50;99.90
7290;DHT22;63176;52.678;13.250;2023-03-01T06:22:21;-4.50;99.90
7290;DHT22;63176;52.678;13.250;2023-03-01T06:24:47;-4.50;99.90
7290;DHT22;63176;52.678;13.250;2023-03-01T06:27:13;-4.50;99.90
7290;DHT22;63176;52.678;13.250;2023-03-01T06:29:38;-4.40;99.90
7290;DHT22;63176;52.678;13.250;2023-03-01T06:32:04;-4.40;99.90
7290;DHT22;63176;52.678;13.250;2023-03-01T06:34:30;-4.40;99.90
7290;DHT22;63176;52.678;13.250;2023-03-01T06:36:56;-4.20;99.90
7290;DHT22;63176;52.678;13.250;2023-03-01T06:39:22;-4.10;99.90
7290;DHT22;63176;52.678;13.250;2023-03-01T06:41:48;-4.10;99.90
7290;DHT22;63176;52.678;13.250;2023-03-01T06:44:13;-4.00;99.90
7290;DHT22;63176;52.678;13.250;2023-03-01T06:46:40;-3.80;99.90
7290;DHT22;63176;52.678;13.250;2023-03-01T06:49:06;-3.70;99.90
7290;DHT22;63176;52.678;13.250;2023-03-01T06:51:35;-3.60;99.90
7290;DHT22;63176;52.678;13.250;2023-03-01T06:54:03;-3.60;99.90
7290;DHT22;63176;52.678;13.250;2023-03-01T06:56:29;-3.40;99.90
7290;DHT22;63176;52.678;13.250;2023-03-01T06:58:55;-3.30;99.90
7290;DHT22;63176;52.678;13.250;2023-03-01T07:01:21;-3.20;99.90
7290;DHT22;63176;52.678;13.250;2023-03-01T07:03:46;-3.20;99.90
7290;DHT22;63176;52.678;13.250;2023-03-01T07:06:12;-3.10;99.90
7290;DHT22;63176;52.678;13.250;2023-03-01T07:08:38;-3.00;99.90
7290;DHT22;63176;52.678;13.250;2023-03-01T07:11:03;-2.90;99.90
7290;DHT22;63176;52.678;13.250;2023-03-01T07:13:29;-2.80;99.90
7290;DHT22;63176;52.678;13.250;2023-03-01T07:15:55;-2.60;99.90
7290;DHT22;63176;52.678;13.250;2023-03-01T07:18:21;-2.50;99.90
7290;DHT22;63176;52.678;13.250;2023-03-01T07:20:50;-2.50;99.90
7290;DHT22;63176;52.678;13.250;2023-03-01T07:23:15;-2.40;99.90
7290;DHT22;63176;52.678;13.250;2023-03-01T07:25:41;-2.30;99.90
7290;DHT22;63176;52.678;13.250;2023-03-01T07:28:07;-2.20;99.90
7290;DHT22;63176;52.678;13.250;2023-03-01T07:30:32;-2.20;99.90
7290;DHT22;63176;52.678;13.250;2023-03-01T07:32:58;-2.10;99.90
7290;DHT22;63176;52.678;13.250;2023-03-01T07:35:27;-2.00;99.90
7290;DHT22;63176;52.678;13.250;2023-03-01T07:37:53;-1.90;99.90
7290;DHT22;63176;52.678;13.250;2023-03-01T07:40:19;-1.80;99.90
7290;DHT22;63176;52.678;13.250;2023-03-01T07:42:45;-1.60;99.90
7290;DHT22;63176;52.678;13.250;2023-03-01T07:45:11;-1.30;99.90
7290;DHT22;63176;52.678;13.250;2023-03-01T07:47:38;-1.00;99.90
7290;DHT22;63176;52.678;13.250;2023-03-01T07:50:04;-0.70;99.90
7290;DHT22;63176;52.678;13.250;2023-03-01T07:52:30;-0.30;99.90
7290;DHT22;63176;52.678;13.250;2023-03-01T07:54:56;0.00;99.90
7290;DHT22;63176;52.678;13.250;2023-03-01T07:57:23;0.10;99.90
7290;DHT22;63176;52.678;13.250;2023-03-01T07:59:49;0.00;99.90
7290;DHT22;63176;52.678;13.250;2023-03-01T08:02:14;0.00;99.90
7290;DHT22;63176;52.678;13.250;2023-03-01T08:04:41;0.00;99.90
7290;DHT22;63176;52.678;13.250;2023-03-01T08:07:07;0.10;99.90
7290;DHT22;63176;52.678;13.250;2023-03-01T08:09:35;0.00;99.90
7290;DHT22;63176;52.678;13.250;2023-03-01T08:12:02;0.00;99.90
7290;DHT22;63176;52.678;13.250;2023-03-01T08:14:30;0.00;99.90
7290;DHT22;63176;52.678;13.250;2023-03-01T08:16:56;0.00;99.90
7290;DHT22;63176;52.678;13.250;2023-03-01T08:19:21;0.20;99.90
7290;DHT22;63176;52.678;13.250;2023-03-01T08:21:47;0.30;99.90
7290;DHT22;63176;52.678;13.250;2023-03-01T08:24:13;0.50;99.90
7290;DHT22;63176;52.678;13.250;2023-03-01T08:26:39;0.70;99.90
7290;DHT22;63176;52.678;13.250;2023-03-01T08:29:04;1.00;99.90
7290;DHT22;63176;52.678;13.250;2023-03-01T08:31:36;1.20;99.90
7290;DHT22;63176;52.678;13.250;2023-03-01T08:34:08;1.40;99.90
7290;DHT22;63176;52.678;13.250;2023-03-01T08:36:39;1.60;99.90
7290;DHT22;63176;52.678;13.250;2023-03-01T08:39:06;1.80;99.90
7290;DHT22;63176;52.678;13.250;2023-03-01T08:41:32;2.00;99.90
7290;DHT22;63176;52.678;13.250;2023-03-01T08:43:58;2.10;99.90
7290;DHT22;63176;52.678;13.250;2023-03-01T08:46:43;2.40;99.90
7290;DHT22;63176;52.678;13.250;2023-03-01T08:49:16;2.60;99.90
7290;DHT22;63176;52.678;13.250;2023-03-01T08:51:42;2.90;99.90
7290;DHT22;63176;52.678;13.250;2023-03-01T08:54:14;3.10;99.90
7290;DHT22;63176;52.678;13.250;2023-03-01T08:56:40;3.20;99.90
7290;DHT22;63176;52.678;13.250;2023-03-01T08:59:06;3.40;99.90
7290;DHT22;63176;52.678;13.250;2023-03-01T09:01:32;3.60;99.90
7290;DHT22;63176;52.678;13.250;2023-03-01T09:03:58;3.90;99.90
7290;DHT22;63176;52.678;13.250;2023-03-01T09:06:24;4.10;99.90
7290;DHT22;63176;52.678;13.250;2023-03-01T09:08:50;4.10;99.90
7290;DHT22;63176;52.678;13.250;2023-03-01T09:11:20;4.10;99.90
7290;DHT22;63176;52.678;13.250;2023-03-01T09:13:47;4.10;99.90
7290;DHT22;63176;52.678;13.250;2023-03-01T09:16:14;4.10;99.90
7290;DHT22;63176;52.678;13.250;2023-03-01T09:18:40;4.30;99.90
7290;DHT22;63176;52.678;13.250;2023-03-01T09:21:09;4.50;99.90
7290;DHT22;63176;52.678;13.250;2023-03-01T09:23:36;4.70;99.90
7290;DHT22;63176;52.678;13.250;2023-03-01T09:26:04;4.90;99.90
7290;DHT22;63176;52.678;13.250;2023-03-01T09:28:30;5.30;99.90
7290;DHT22;63176;52.678;13.250;2023-03-01T09:31:00;5.70;99.90
7290;DHT22;63176;52.678;13.250;2023-03-01T09:33:27;6.20;99.90
7290;DHT22;63176;52.678;13.250;2023-03-01T09:35:58;6.60;99.90
7290;DHT22;63176;52.678;13.250;2023-03-01T09:38:24;7.10;99.90
7290;DHT22;63176;52.678;13.250;2023-03-01T09:40:49;7.40;99.90
7290;DHT22;63176;52.678;13.250;2023-03-01T09:43:18;7.60;99.90
7290;DHT22;63176;52.678;13.250;2023-03-01T09:45:48;8.10;99.90
7290;DHT22;63176;52.678;13.250;2023-03-01T09:48:20;8.40;99.90
7290;DHT22;63176;52.678;13.250;2023-03-01T09:50:50;8.60;99.90
7290;DHT22;63176;52.678;13.250;2023-03-01T09:53:20;8.70;99.90
7290;DHT22;63176;52.678;13.250;2023-03-01T10:06:37;9.20;99.90
7290;DHT22;63176;52.678;13.250;2023-03-01T10:09:13;9.10;99.90
7290;DHT22;63176;52.678;13.250;2023-03-01T10:11:52;8.90;99.90
7290;DHT22;63176;52.678;13.250;2023-03-01T10:22:44;10.20;99.90
7290;DHT22;63176;52.678;13.250;2023-03-01T10:30:50;11.50;99.90
7290;DHT22;63176;52.678;13.250;2023-03-01T10:33:21;11.20;99.90
7290;DHT22;63176;52.678;13.250;2023-03-01T10:35:48;11.10;99.90
7290;DHT22;63176;52.678;13.250;2023-03-01T10:38:16;10.70;99.90
7290;DHT22;63176;52.678;13.250;2023-03-01T10:40:57;10.30;99.90
7290;DHT22;63176;52.678;13.250;2023-03-01T10:43:40;9.90;99.90
7290;DHT22;63176;52.678;13.250;2023-03-01T10:46:33;9.70;99.90
7290;DHT22;63176;52.678;13.250;2023-03-01T10:49:15;9.40;99.90
7290;DHT22;63176;52.678;13.250;2023-03-01T10:51:44;9.40;99.90
7290;DHT22;63176;52.678;13.250;2023-03-01T10:56:53;9.40;99.90
7290;DHT22;63176;52.678;13.250;2023-03-01T10:59:27;10.00;99.90
7290;DHT22;63176;52.678;13.250;2023-03-01T11:05:16;11.10;99.90
7290;DHT22;63176;52.678;13.250;2023-03-01T11:08:08;11.60;99.90
7290;DHT22;63176;52.678;13.250;2023-03-01T11:10:36;11.30;99.90
7290;DHT22;63176;52.678;13.250;2023-03-01T11:13:19;11.20;99.90
7290;DHT22;63176;52.678;13.250;2023-03-01T11:16:02;11.20;99.90
7290;DHT22;63176;52.678;13.250;2023-03-01T11:18:30;11.10;99.90
7290;DHT22;63176;52.678;13.250;2023-03-01T11:20:58;11.20;99.90
7290;DHT22;63176;52.678;13.250;2023-03-01T11:23:29;11.30;99.90
7290;DHT22;63176;52.678;13.250;2023-03-01T11:25:58;11.80;99.90
7290;DHT22;63176;52.678;13.250;2023-03-01T11:28:25;12.30;99.90
7290;DHT22;63176;52.678;13.250;2023-03-01T11:31:09;12.60;99.90
7290;DHT22;63176;52.678;13.250;2023-03-01T11:34:05;13.40;99.90
7290;DHT22;63176;52.678;13.250;2023-03-01T11:36:48;14.10;99.90
7290;DHT22;63176;52.678;13.250;2023-03-01T11:39:39;14.10;99.90
7290;DHT22;63176;52.678;13.250;2023-03-01T11:42:14;13.30;99.90
7290;DHT22;63176;52.678;13.250;2023-03-01T11:44:42;13.00;99.90
7290;DHT22;63176;52.678;13.250;2023-03-01T11:55:58;12.20;99.90
7290;DHT22;63176;52.678;13.250;2023-03-01T11:58:52;12.40;99.90
7290;DHT22;63176;52.678;13.250;2023-03-01T12:01:37;11.70;99.90
7290;DHT22;63176;52.678;13.250;2023-03-01T12:07:01;10.10;99.90
7290;DHT22;63176;52.678;13.250;2023-03-01T12:47:44;8.10;99.90
7290;DHT22;63176;52.678;13.250;2023-03-01T12:50:20;8.10;99.90
7290;DHT22;63176;52.678;13.250;2023-03-01T12:52:57;8.00;99.90
7290;DHT22;63176;52.678;13.250;2023-03-01T12:55:38;8.00;99.90
7290;DHT22;63176;52.678;13.250;2023-03-01T13:15:36;8.00;99.90
7290;DHT22;63176;52.678;13.250;2023-03-01T13:18:03;8.00;99.90
7290;DHT22;63176;52.678;13.250;2023-03-01T13:20:35;8.00;99.90
7290;DHT22;63176;52.678;13.250;2023-03-01T13:28:53;7.90;99.90
7290;DHT22;63176;52.678;13.250;2023-03-01T13:33:49;8.00;99.90
7290;DHT22;63176;52.678;13.250;2023-03-01T13:39:26;7.90;99.90
7290;DHT22;63176;52.678;13.250;2023-03-01T13:41:55;7.90;99.90
7290;DHT22;63176;52.678;13.250;2023-03-01T13:44:33;7.80;99.90
7290;DHT22;63176;52.678;13.250;2023-03-01T13:50:01;8.00;99.90
7290;DHT22;63176;52.678;13.250;2023-03-01T13:52:43;7.90;99.90
7290;DHT22;63176;52.678;13.250;2023-03-01T13:55:24;7.90;99.90
7290;DHT22;63176;52.678;13.250;2023-03-01T13:57:55;7.90;99.90
7290;DHT22;63176;52.678;13.250;2023-03-01T14:00:36;7.90;99.90
7290;DHT22;63176;52.678;13.250;2023-03-01T14:03:10;7.90;99.90
7290;DHT22;63176;52.678;13.250;2023-03-01T14:05:37;7.90;99.90
7290;DHT22;63176;52.678;13.250;2023-03-01T14:08:04;7.90;99.90
7290;DHT22;63176;52.678;13.250;2023-03-01T14:19:26;7.80;99.90
7290;DHT22;63176;52.678;13.250;2023-03-01T14:22:17;7.80;99.90
7290;DHT22;63176;52.678;13.250;2023-03-01T14:24:51;7.80;99.90
7290;DHT22;63176;52.678;13.250;2023-03-01T14:27:18;7.80;99.90
7290;DHT22;63176;52.678;13.250;2023-03-01T14:29:45;7.80;99.90
7290;DHT22;63176;52.678;13.250;2023-03-01T14:32:21;7.70;99.90
7290;DHT22;63176;52.678;13.250;2023-03-01T14:34:49;7.70;99.90
7290;DHT22;63176;52.678;13.250;2023-03-01T14:37:23;7.70;99.90
7290;DHT22;63176;52.678;13.250;2023-03-01T14:39:50;7.70;99.90
7290;DHT22;63176;52.678;13.250;2023-03-01T14:42:16;7.70;99.90
7290;DHT22;63176;52.678;13.250;2023-03-01T14:44:46;7.80;99.90
7290;DHT22;63176;52.678;13.250;2023-03-01T14:47:15;7.70;99.90
7290;DHT22;63176;52.678;13.250;2023-03-01T14:49:43;7.70;99.90
7290;DHT22;63176;52.678;13.250;2023-03-01T14:52:22;7.70;99.90
7290;DHT22;63176;52.678;13.250;2023-03-01T14:54:50;7.70;99.90
7290;DHT22;63176;52.678;13.250;2023-03-01T14:57:24;7.60;99.90
7290;DHT22;63176;52.678;13.250;2023-03-01T14:59:57;7.70;99.90
7290;DHT22;63176;52.678;13.250;2023-03-01T15:02:26;7.60;99.90
7290;DHT22;63176;52.678;13.250;2023-03-01T15:04:55;7.60;99.90
7290;DHT22;63176;52.678;13.250;2023-03-01T15:07:29;7.60;99.90
7290;DHT22;63176;52.678;13.250;2023-03-01T15:09:55;7.50;99.90
7290;DHT22;63176;52.678;13.250;2023-03-01T15:14:54;7.40;99.90
7290;DHT22;63176;52.678;13.250;2023-03-01T15:17:21;7.40;99.90
7290;DHT22;63176;52.678;13.250;2023-03-01T15:19:49;7.40;99.90
7290;DHT22;63176;52.678;13.250;2023-03-01T15:22:15;7.40;99.90
7290;DHT22;63176;52.678;13.250;2023-03-01T15:24:47;7.40;99.90
7290;DHT22;63176;52.678;13.250;2023-03-01T15:27:17;7.30;99.90
7290;DHT22;63176;52.678;13.250;2023-03-01T15:29:58;7.30;99.90
7290;DHT22;63176;52.678;13.250;2023-03-01T15:32:32;7.30;99.90
7290;DHT22;63176;52.678;13.250;2023-03-01T15:35:01;7.20;99.90
7290;DHT22;63176;52.678;13.250;2023-03-01T15:37:45;7.10;99.90
7290;DHT22;63176;52.678;13.250;2023-03-01T15:42:57;7.00;99.90
7290;DHT22;63176;52.678;13.250;2023-03-01T15:45:25;6.90;99.90
7290;DHT22;63176;52.678;13.250;2023-03-01T15:50:36;6.80;99.90
7290;DHT22;63176;52.678;13.250;2023-03-01T15:53:11;6.80;99.90
7290;DHT22;63176;52.678;13.250;2023-03-01T15:55:37;6.70;99.90
7290;DHT22;63176;52.678;13.250;2023-03-01T15:58:14;6.60;99.90
7290;DHT22;63176;52.678;13.250;2023-03-01T16:00:41;6.50;99.90
7290;DHT22;63176;52.678;13.250;2023-03-01T16:03:10;6.40;99.90
7290;DHT22;63176;52.678;13.250;2023-03-01T16:05:38;6.30;99.90
7290;DHT22;63176;52.678;13.250;2023-03-01T16:08:05;6.20;99.90
7290;DHT22;63176;52.678;13.250;2023-03-01T16:10:32;6.20;99.90
7290;DHT22;63176;52.678;13.250;2023-03-01T16:12:58;6.20;99.90
7290;DHT22;63176;52.678;13.250;2023-03-01T16:15:29;6.10;99.90
7290;DHT22;63176;52.678;13.250;2023-03-01T16:17:55;6.00;99.90
7290;DHT22;63176;52.678;13.250;2023-03-01T16:20:24;5.80;99.90
7290;DHT22;63176;52.678;13.250;2023-03-01T16:22:51;5.70;99.90
7290;DHT22;63176;52.678;13.250;2023-03-01T16:25:18;5.60;99.90
7290;DHT22;63176;52.678;13.250;2023-03-01T16:27:46;5.50;99.90
7290;DHT22;63176;52.678;13.250;2023-03-01T16:30:14;5.30;99.90
7290;DHT22;63176;52.678;13.250;2023-03-01T16:32:40;5.20;99.90
7290;DHT22;63176;52.678;13.250;2023-03-01T16:35:08;5.00;99.90
7290;DHT22;63176;52.678;13.250;2023-03-01T16:37:35;5.00;99.90
7290;DHT22;63176;52.678;13.250;2023-03-01T16:40:02;4.80;99.90
7290;DHT22;63176;52.678;13.250;2023-03-01T16:42:36;4.70;99.90
7290;DHT22;63176;52.678;13.250;2023-03-01T16:45:02;4.60;99.90
7290;DHT22;63176;52.678;13.250;2023-03-01T16:47:28;4.40;99.90
7290;DHT22;63176;52.678;13.250;2023-03-01T16:49:54;4.40;99.90
7290;DHT22;63176;52.678;13.250;2023-03-01T16:52:21;4.20;99.90
7290;DHT22;63176;52.678;13.250;2023-03-01T16:54:47;4.10;99.90
7290;DHT22;63176;52.678;13.250;2023-03-01T16:57:13;4.00;99.90
7290;DHT22;63176;52.678;13.250;2023-03-01T16:59:39;3.90;99.90
7290;DHT22;63176;52.678;13.250;2023-03-01T17:02:08;3.90;99.90
7290;DHT22;63176;52.678;13.250;2023-03-01T17:04:36;3.80;99.90
7290;DHT22;63176;52.678;13.250;2023-03-01T17:07:02;3.60;99.90
7290;DHT22;63176;52.678;13.250;2023-03-01T17:09:28;3.50;99.90
7290;DHT22;63176;52.678;13.250;2023-03-01T17:11:54;3.40;99.90
7290;DHT22;63176;52.678;13.250;2023-03-01T17:14:20;3.40;99.90
7290;DHT22;63176;52.678;13.250;2023-03-01T17:16:45;3.40;99.90
7290;DHT22;63176;52.678;13.250;2023-03-01T17:19:11;3.30;99.90
7290;DHT22;63176;52.678;13.250;2023-03-01T17:21:45;3.20;99.90
7290;DHT22;63176;52.678;13.250;2023-03-01T17:24:12;3.10;99.90
7290;DHT22;63176;52.678;13.250;2023-03-01T17:26:38;3.00;99.90
7290;DHT22;63176;52.678;13.250;2023-03-01T17:29:04;2.90;99.90
7290;DHT22;63176;52.678;13.250;2023-03-01T17:31:33;2.90;99.90
7290;DHT22;63176;52.678;13.250;2023-03-01T17:33:59;2.80;99.90
7290;DHT22;63176;52.678;13.250;2023-03-01T17:36:25;2.70;99.90
7290;DHT22;63176;52.678;13.250;2023-03-01T17:38:51;2.60;99.90
7290;DHT22;63176;52.678;13.250;2023-03-01T17:41:17;2.50;99.90
7290;DHT22;63176;52.678;13.250;2023-03-01T17:43:44;2.40;99.90
7290;DHT22;63176;52.678;13.250;2023-03-01T17:46:10;2.30;99.90
7290;DHT22;63176;52.678;13.250;2023-03-01T17:48:36;2.20;99.90
7290;DHT22;63176;52.678;13.250;2023-03-01T17:51:06;2.10;99.90
7290;DHT22;63176;52.678;13.250;2023-03-01T17:53:32;2.00;99.90
7290;DHT22;63176;52.678;13.250;2023-03-01T17:56:03;2.00;99.90
7290;DHT22;63176;52.678;13.250;2023-03-01T17:58:30;1.90;99.90
7290;DHT22;63176;52.678;13.250;2023-03-01T18:01:09;1.90;99.90
7290;DHT22;63176;52.678;13.250;2023-03-01T18:03:35;1.80;99.90
7290;DHT22;63176;52.678;13.250;2023-03-01T18:06:01;1.80;99.90
7290;DHT22;63176;52.678;13.250;2023-03-01T18:08:27;1.70;99.90
7290;DHT22;63176;52.678;13.250;2023-03-01T18:10:59;1.60;99.90
7290;DHT22;63176;52.678;13.250;2023-03-01T18:13:24;1.50;99.90
7290;DHT22;63176;52.678;13.250;2023-03-01T18:15:50;1.60;99.90